Time,TemperatureF,DewpointF,PressureIn,WindDirection,WindDirectionDegrees,WindSpeedMPH,WindSpeedGustMPH,Humidity,HourlyPrecipIn,Conditions,Clouds,dailyrainin,SolarRadiationWatts/m^2,SoftwareType,DateUTC
2013-03-08 00:00:00,31.9,29.8,30.27,West,280,0.0,0.0,92,0.00,,,0.00,0,Wunderground v.1.15,2013-03-08 05:00:00,
2013-03-08 00:02:00,31.8,29.7,30.27,West,280,0.0,0.0,92,0.00,,,0.00,0,Wunderground v.1.15,2013-03-08 05:02:00,
2013-03-08 00:08:00,31.7,29.6,30.27,West,280,0.0,0.0,92,0.00,,,0.00,0,Wunderground v.1.15,2013-03-08 05:08:00,
2013-03-08 00:12:00,31.5,29.4,30.27,West,280,0.0,1.0,92,0.00,,,0.00,0,Wunderground v.1.15,2013-03-08 05:12:00,
2013-03-08 00:18:00,31.3,29.2,30.27,WNW,286,0.0,1.0,92,0.00,,,0.00,0,Wunderground v.1.15,2013-03-08 05:18:00,
2013-03-08 00:24:00,31.6,29.3,30.27,NW,318,0.0,2.0,91,0.00,,,0.00,0,Wunderground v.1.15,2013-03-08 05:24:00,
2013-03-08 00:30:00,31.2,29.1,30.27,NW,318,0.0,0.0,92,0.00,,,0.00,0,Wunderground v.1.15,2013-03-08 05:30:00,
2013-03-08 00:36:00,31.0,28.9,30.27,NW,318,0.0,7.0,92,0.00,,,0.00,0,Wunderground v.1.15,2013-03-08 05:36:00,
2013-03-08 00:42:00,30.8,29.0,30.26,NW,318,0.0,7.0,93,0.00,,,0.00,0,Wunderground v.1.15,2013-03-08 05:42:00,
2013-03-08 00:48:00,30.7,28.9,30.26,NW,318,0.0,7.0,93,0.00,,,0.00,0,Wunderground v.1.15,2013-03-08 05:48:00,
2013-03-08 00:54:00,31.0,28.9,30.26,NW,316,0.0,7.0,92,0.00,,,0.00,0,Wunderground v.1.15,2013-03-08 05:54:00,
2013-03-08 01:00:00,31.1,28.8,30.26,NW,316,0.0,7.0,91,0.00,,,0.00,0,Wunderground v.1.15,2013-03-08 06:00:00,
2013-03-08 01:06:00,30.7,28.4,30.26,NW,316,0.0,7.0,91,0.00,,,0.00,0,Wunderground v.1.15,2013-03-08 06:06:00,
2013-03-08 01:12:00,30.1,28.1,30.26,NNW,337,0.0,7.0,92,0.00,,,0.00,0,Wunderground v.1.15,2013-03-08 06:12:00,
2013-03-08 01:18:00,29.9,27.9,30.26,NW,317,0.0,7.0,92,0.00,,,0.00,0,Wunderground v.1.15,2013-03-08 06:18:00,
2013-03-08 01:24:00,30.0,27.7,30.26,NW,313,0.0,7.0,91,0.00,,,0.00,0,Wunderground v.1.15,2013-03-08 06:24:00,
2013-03-08 01:30:00,29.9,27.3,30.27,WNW,301,1.0,1.0,90,0.00,,,0.00,0,Wunderground v.1.15,2013-03-08 06:30:00,
2013-03-08 01:36:00,30.1,27.3,30.27,NW,312,1.0,7.0,89,0.00,,,0.00,0,Wunderground v.1.15,2013-03-08 06:36:00,
2013-03-08 01:42:00,30.0,27.2,30.27,NNW,337,1.0,7.0,89,0.00,,,0.00,0,Wunderground v.1.15,2013-03-08 06:42:00,
2013-03-08 01:48:00,30.6,27.5,30.27,West,279,1.0,7.0,88,0.00,,,0.00,0,Wunderground v.1.15,2013-03-08 06:48:00,
2013-03-08 01:54:00,31.1,27.4,30.27,NW,318,2.0,7.0,86,0.00,,,0.00,0,Wunderground v.1.15,2013-03-08 06:54:00,
2013-03-08 02:00:00,31.6,27.0,30.27,NNW,342,2.0,7.0,83,0.00,,,0.00,0,Wunderground v.1.15,2013-03-08 07:00:00,
2013-03-08 02:06:00,31.7,26.8,30.26,WNW,302,2.0,7.0,82,0.00,,,0.00,0,Wunderground v.1.15,2013-03-08 07:06:00,
2013-03-08 02:12:00,31.4,26.2,30.26,WNW,285,1.0,7.0,81,0.00,,,0.00,0,Wunderground v.1.15,2013-03-08 07:12:00,
2013-03-08 02:18:00,31.2,26.3,30.26,WNW,290,2.0,7.0,82,0.00,,,0.00,0,Wunderground v.1.15,2013-03-08 07:18:00,
2013-03-08 02:24:00,30.6,26.1,30.26,NW,325,1.0,7.0,83,0.00,,,0.00,0,Wunderground v.1.15,2013-03-08 07:24:00,
2013-03-08 02:30:00,30.0,25.8,30.26,NW,311,1.0,1.0,84,0.00,,,0.00,0,Wunderground v.1.15,2013-03-08 07:30:00,
2013-03-08 02:36:00,29.7,25.5,30.26,WNW,292,1.0,7.0,84,0.00,,,0.00,0,Wunderground v.1.15,2013-03-08 07:36:00,
2013-03-08 02:42:00,30.4,25.6,30.26,NNW,333,2.0,7.0,82,0.00,,,0.00,0,Wunderground v.1.15,2013-03-08 07:42:00,
2013-03-08 02:48:00,31.3,25.8,30.26,North,351,2.0,7.0,80,0.00,,,0.00,0,Wunderground v.1.15,2013-03-08 07:48:00,
2013-03-08 02:54:00,31.7,25.9,30.26,WSW,257,1.0,7.0,79,0.00,,,0.00,0,Wunderground v.1.15,2013-03-08 07:54:00,
2013-03-08 03:00:00,32.1,26.3,30.26,NNW,329,2.0,7.0,79,0.00,,,0.00,0,Wunderground v.1.15,2013-03-08 08:00:00,
2013-03-08 03:06:00,32.4,26.6,30.26,NNE,21,3.0,7.0,79,0.00,,,0.00,0,Wunderground v.1.15,2013-03-08 08:06:00,
2013-03-08 03:12:00,32.5,27.0,30.26,North,355,3.0,7.0,80,0.00,,,0.00,0,Wunderground v.1.15,2013-03-08 08:12:00,
2013-03-08 03:18:00,32.5,27.3,30.26,WNW,292,3.0,7.0,81,0.00,,,0.00,0,Wunderground v.1.15,2013-03-08 08:18:00,
2013-03-08 03:24:00,32.3,27.7,30.27,NNW,336,2.0,7.0,83,0.00,,,0.00,0,Wunderground v.1.15,2013-03-08 08:24:00,
2013-03-08 03:30:00,32.1,27.8,30.27,NW,305,2.0,2.0,84,0.00,,,0.00,0,Wunderground v.1.15,2013-03-08 08:30:00,
2013-03-08 03:36:00,31.9,27.9,30.26,NNW,332,2.0,7.0,85,0.00,,,0.00,0,Wunderground v.1.15,2013-03-08 08:36:00,
2013-03-08 03:42:00,32.0,28.0,30.27,WSW,243,2.0,7.0,85,0.00,,,0.00,0,Wunderground v.1.15,2013-03-08 08:42:00,
2013-03-08 03:48:00,32.1,27.8,30.27,West,279,2.0,7.0,84,0.00,,,0.00,0,Wunderground v.1.15,2013-03-08 08:48:00,
2013-03-08 03:54:00,32.2,27.6,30.27,WNW,294,2.0,7.0,83,0.00,,,0.00,0,Wunderground v.1.15,2013-03-08 08:54:00,
2013-03-08 04:00:00,32.4,27.5,30.26,NW,304,4.0,7.0,82,0.00,,,0.00,0,Wunderground v.1.15,2013-03-08 09:00:00,
2013-03-08 04:06:00,32.6,27.4,30.26,NE,42,3.0,7.0,81,0.00,,,0.00,0,Wunderground v.1.15,2013-03-08 09:06:00,
2013-03-08 04:12:00,32.7,27.2,30.27,West,268,3.0,7.0,80,0.00,,,0.00,0,Wunderground v.1.15,2013-03-08 09:12:00,
2013-03-08 04:18:00,32.8,26.7,30.27,WNW,282,4.0,7.0,78,0.00,,,0.00,0,Wunderground v.1.15,2013-03-08 09:18:00,
2013-03-08 04:24:00,32.8,26.7,30.27,NW,324,4.0,7.0,78,0.00,,,0.00,0,Wunderground v.1.15,2013-03-08 09:24:00,
2013-03-08 04:30:00,32.8,26.4,30.27,WNW,299,2.0,7.0,77,0.00,,,0.00,0,Wunderground v.1.15,2013-03-08 09:30:00,
2013-03-08 04:36:00,32.8,26.4,30.28,NW,310,2.0,7.0,77,0.00,,,0.00,0,Wunderground v.1.15,2013-03-08 09:36:00,
2013-03-08 04:42:00,32.8,26.1,30.28,North,360,2.0,8.0,76,0.00,,,0.00,0,Wunderground v.1.15,2013-03-08 09:42:00,
2013-03-08 04:48:00,32.9,25.8,30.28,WNW,292,3.0,8.0,75,0.00,,,0.00,0,Wunderground v.1.15,2013-03-08 09:48:00,
2013-03-08 04:54:00,32.9,25.8,30.28,NW,317,2.0,7.0,75,0.00,,,0.00,0,Wunderground v.1.15,2013-03-08 09:54:00,
2013-03-08 05:00:00,32.9,25.8,30.28,NW,319,2.0,7.0,75,0.00,,,0.00,0,Wunderground v.1.15,2013-03-08 10:00:00,
2013-03-08 05:06:00,32.8,25.7,30.29,NW,311,2.0,7.0,75,0.00,,,0.00,0,Wunderground v.1.15,2013-03-08 10:06:00,
2013-03-08 05:12:00,32.7,25.6,30.29,NNW,331,1.0,7.0,75,0.00,,,0.00,0,Wunderground v.1.15,2013-03-08 10:12:00,
2013-03-08 05:18:00,32.7,25.6,30.29,WNW,298,2.0,7.0,75,0.00,,,0.00,0,Wunderground v.1.15,2013-03-08 10:18:00,
2013-03-08 05:24:00,32.7,25.0,30.29,NNW,342,3.0,7.0,73,0.00,,,0.00,0,Wunderground v.1.15,2013-03-08 10:24:00,
2013-03-08 05:30:00,32.7,24.7,30.30,North,11,3.0,3.0,72,0.00,,,0.00,0,Wunderground v.1.15,2013-03-08 10:30:00,
2013-03-08 05:36:00,32.7,24.3,30.30,NNW,334,2.0,7.0,71,0.00,,,0.00,0,Wunderground v.1.15,2013-03-08 10:36:00,
2013-03-08 05:42:00,32.8,24.4,30.30,SSW,213,2.0,7.0,71,0.00,,,0.00,0,Wunderground v.1.15,2013-03-08 10:42:00,
2013-03-08 05:48:00,32.9,24.2,30.31,East,100,3.0,7.0,70,0.00,,,0.00,0,Wunderground v.1.15,2013-03-08 10:48:00,
2013-03-08 05:54:00,32.8,24.1,30.31,NW,306,2.0,7.0,70,0.00,,,0.00,0,Wunderground v.1.15,2013-03-08 10:54:00,
2013-03-08 06:00:00,32.8,24.1,30.31,NNW,348,2.0,2.0,70,0.00,,,0.00,0,Wunderground v.1.15,2013-03-08 11:00:00,
2013-03-08 06:06:00,32.7,23.6,30.31,NNW,333,1.0,7.0,69,0.00,,,0.00,0,Wunderground v.1.15,2013-03-08 11:06:00,
2013-03-08 06:12:00,32.7,23.6,30.32,NNW,331,2.0,2.0,69,0.00,,,0.00,0,Wunderground v.1.15,2013-03-08 11:12:00,
2013-03-08 06:18:00,32.6,23.2,30.32,ENE,78,3.0,7.0,68,0.00,,,0.00,0,Wunderground v.1.15,2013-03-08 11:18:00,
2013-03-08 06:24:00,32.6,22.8,30.32,NE,36,3.0,7.0,67,0.00,,,0.00,0,Wunderground v.1.15,2013-03-08 11:24:00,
2013-03-08 06:30:00,32.6,22.8,30.32,WNW,296,3.0,3.0,67,0.00,,,0.00,0,Wunderground v.1.15,2013-03-08 11:30:00,
2013-03-08 06:36:00,32.5,23.5,30.33,East,84,3.0,7.0,69,0.00,,,0.00,0,Wunderground v.1.15,2013-03-08 11:36:00,
2013-03-08 06:42:00,32.4,23.4,30.33,ENE,60,2.0,7.0,69,0.00,,,0.00,0,Wunderground v.1.15,2013-03-08 11:42:00,
2013-03-08 06:48:00,32.3,23.3,30.33,NNE,28,2.0,7.0,69,0.00,,,0.00,7,Wunderground v.1.15,2013-03-08 11:48:00,
2013-03-08 06:54:00,32.2,23.5,30.34,SSW,209,2.0,7.0,70,0.00,,,0.00,9,Wunderground v.1.15,2013-03-08 11:54:00,
2013-03-08 07:00:00,32.2,23.2,30.34,ENE,69,1.0,1.0,69,0.00,,,0.00,11,Wunderground v.1.15,2013-03-08 12:00:00,
2013-03-08 07:06:00,32.3,23.3,30.34,WSW,257,1.0,7.0,69,0.00,,,0.00,16,Wunderground v.1.15,2013-03-08 12:06:00,
2013-03-08 07:12:00,32.3,23.3,30.34,NW,309,1.0,7.0,69,0.00,,,0.00,18,Wunderground v.1.15,2013-03-08 12:12:00,
2013-03-08 07:18:00,32.3,23.6,30.35,NNE,24,1.0,7.0,70,0.00,,,0.00,21,Wunderground v.1.15,2013-03-08 12:18:00,
2013-03-08 07:24:00,32.3,23.3,30.34,NNE,26,1.0,7.0,69,0.00,,,0.00,28,Wunderground v.1.15,2013-03-08 12:24:00,
2013-03-08 07:30:00,32.3,23.6,30.35,West,279,0.0,7.0,70,0.00,,,0.00,33,Wunderground v.1.15,2013-03-08 12:30:00,
2013-03-08 07:36:00,32.3,23.9,30.35,NNW,342,1.0,7.0,71,0.00,,,0.00,37,Wunderground v.1.15,2013-03-08 12:36:00,
2013-03-08 07:42:00,32.3,23.9,30.35,NNW,347,2.0,7.0,71,0.00,,,0.00,37,Wunderground v.1.15,2013-03-08 12:42:00,
2013-03-08 07:48:00,32.3,24.3,30.35,NW,318,3.0,7.0,72,0.00,,,0.00,47,Wunderground v.1.15,2013-03-08 12:48:00,
2013-03-08 07:54:00,32.3,24.6,30.36,NW,310,2.0,7.0,73,0.00,,,0.00,60,Wunderground v.1.15,2013-03-08 12:54:00,
2013-03-08 08:00:00,32.2,24.8,30.36,North,360,3.0,3.0,74,0.00,,,0.00,63,Wunderground v.1.15,2013-03-08 13:00:00,
2013-03-08 08:06:00,32.2,24.8,30.36,North,5,3.0,7.0,74,0.00,,,0.00,90,Wunderground v.1.15,2013-03-08 13:06:00,
2013-03-08 08:12:00,32.2,24.8,30.36,SW,215,3.0,7.0,74,0.00,,,0.00,70,Wunderground v.1.15,2013-03-08 13:12:00,
2013-03-08 08:18:00,32.3,24.6,30.36,ENE,57,2.0,7.0,73,0.00,,,0.00,74,Wunderground v.1.15,2013-03-08 13:18:00,
2013-03-08 08:24:00,32.4,24.4,30.36,ENE,74,1.0,7.0,72,0.00,,,0.00,83,Wunderground v.1.15,2013-03-08 13:24:00,
2013-03-08 08:30:00,32.7,24.3,30.36,SE,142,2.0,7.0,71,0.00,,,0.00,88,Wunderground v.1.15,2013-03-08 13:30:00,
2013-03-08 08:36:00,32.9,23.1,30.36,NE,36,3.0,7.0,67,0.00,,,0.00,88,Wunderground v.1.15,2013-03-08 13:36:00,
2013-03-08 08:42:00,33.1,23.0,30.36,ENE,61,4.0,5.0,66,0.00,,,0.00,105,Wunderground v.1.15,2013-03-08 13:42:00,
2013-03-08 08:48:00,33.2,22.7,30.36,NNW,338,3.0,7.0,65,0.00,,,0.00,125,Wunderground v.1.15,2013-03-08 13:48:00,
2013-03-08 08:54:00,33.3,22.4,30.36,NNE,16,3.0,9.0,64,0.00,,,0.00,128,Wunderground v.1.15,2013-03-08 13:54:00,
2013-03-08 09:00:00,33.5,22.2,30.36,North,355,4.0,8.0,63,0.00,,,0.00,132,Wunderground v.1.15,2013-03-08 14:00:00,
2013-03-08 09:06:00,33.5,22.2,30.37,NW,305,4.0,8.0,63,0.00,,,0.00,151,Wunderground v.1.15,2013-03-08 14:06:00,
2013-03-08 09:12:00,33.6,22.3,30.36,North,9,4.0,7.0,63,0.00,,,0.00,148,Wunderground v.1.15,2013-03-08 14:12:00,
2013-03-08 09:18:00,33.6,22.7,30.37,NNE,24,4.0,8.0,64,0.00,,,0.00,155,Wunderground v.1.15,2013-03-08 14:18:00,
2013-03-08 09:24:00,33.6,22.3,30.36,NE,43,4.0,7.0,63,0.00,,,0.00,213,Wunderground v.1.15,2013-03-08 14:24:00,
2013-03-08 09:30:00,33.8,22.9,30.36,NW,319,4.0,8.0,64,0.00,,,0.00,253,Wunderground v.1.15,2013-03-08 14:30:00,
2013-03-08 09:36:00,34.1,22.8,30.37,NNW,340,5.0,8.0,63,0.00,,,0.00,272,Wunderground v.1.15,2013-03-08 14:36:00,
2013-03-08 09:42:00,34.3,22.6,30.37,NE,45,4.0,7.0,62,0.00,,,0.00,285,Wunderground v.1.15,2013-03-08 14:42:00,
2013-03-08 09:48:00,34.5,23.2,30.37,NNW,343,4.0,7.0,63,0.00,,,0.00,308,Wunderground v.1.15,2013-03-08 14:48:00,
2013-03-08 09:54:00,34.6,23.3,30.37,NW,320,5.0,6.0,63,0.00,,,0.00,253,Wunderground v.1.15,2013-03-08 14:54:00,
2013-03-08 10:00:00,34.6,23.7,30.37,NNW,339,4.0,7.0,64,0.00,,,0.00,237,Wunderground v.1.15,2013-03-08 15:00:00,
2013-03-08 10:06:00,35.0,23.7,30.37,NW,324,3.0,7.0,63,0.00,,,0.00,223,Wunderground v.1.15,2013-03-08 15:06:00,
2013-03-08 10:12:00,35.0,22.9,30.37,North,350,2.0,7.0,61,0.00,,,0.00,234,Wunderground v.1.15,2013-03-08 15:12:00,
2013-03-08 10:18:00,35.1,23.8,30.37,North,9,3.0,7.0,63,0.00,,,0.00,267,Wunderground v.1.15,2013-03-08 15:18:00,
2013-03-08 10:24:00,35.2,23.9,30.37,South,175,3.0,7.0,63,0.00,,,0.00,278,Wunderground v.1.15,2013-03-08 15:24:00,
2013-03-08 10:30:00,35.4,24.4,30.38,SE,128,4.0,4.0,64,0.00,,,0.01,338,Wunderground v.1.15,2013-03-08 15:30:00,
2013-03-08 10:36:00,35.4,23.7,30.37,North,360,5.0,7.0,62,0.00,,,0.01,336,Wunderground v.1.15,2013-03-08 15:36:00,
2013-03-08 10:42:00,35.8,24.0,30.37,North,9,6.0,9.0,62,0.00,,,0.01,253,Wunderground v.1.15,2013-03-08 15:42:00,
2013-03-08 10:48:00,36.6,24.4,30.37,North,360,6.0,9.0,61,0.00,,,0.01,359,Wunderground v.1.15,2013-03-08 15:48:00,
2013-03-08 10:54:00,37.1,24.9,30.37,WSW,251,5.0,11.0,61,0.00,,,0.01,657,Wunderground v.1.15,2013-03-08 15:54:00,
2013-03-08 11:00:00,37.1,25.7,30.37,NNW,346,4.0,7.0,63,0.00,,,0.01,315,Wunderground v.1.15,2013-03-08 16:00:00,
2013-03-08 11:06:00,37.2,25.0,30.37,North,355,5.0,9.0,61,0.00,,,0.01,267,Wunderground v.1.15,2013-03-08 16:06:00,
2013-03-08 11:12:00,37.5,24.9,30.36,NE,34,5.0,5.0,60,0.00,,,0.01,267,Wunderground v.1.15,2013-03-08 16:12:00,
2013-03-08 11:18:00,37.3,25.1,30.36,NW,305,3.0,7.0,61,0.00,,,0.01,309,Wunderground v.1.15,2013-03-08 16:18:00,
2013-03-08 11:24:00,37.9,25.6,30.36,NW,322,4.0,7.0,61,0.00,,,0.01,824,Wunderground v.1.15,2013-03-08 16:24:00,
2013-03-08 11:30:00,38.4,26.1,30.35,NE,51,3.0,3.0,61,0.00,,,0.01,900,Wunderground v.1.15,2013-03-08 16:30:00,
2013-03-08 11:36:00,38.0,25.3,30.36,NNW,335,4.0,9.0,60,0.00,,,0.01,274,Wunderground v.1.15,2013-03-08 16:36:00,
2013-03-08 11:42:00,37.6,26.9,30.36,West,270,5.0,7.0,65,0.00,,,0.01,563,Wunderground v.1.15,2013-03-08 16:42:00,
2013-03-08 11:48:00,38.8,26.5,30.36,North,355,5.0,7.0,61,0.00,,,0.01,872,Wunderground v.1.15,2013-03-08 16:48:00,
2013-03-08 11:54:00,39.9,29.5,30.36,NE,40,4.0,7.0,66,0.00,,,0.01,912,Wunderground v.1.15,2013-03-08 16:54:00,
2013-03-08 12:00:00,39.5,26.8,30.36,NW,325,5.0,7.0,60,0.00,,,0.01,853,Wunderground v.1.15,2013-03-08 17:00:00,
2013-03-08 12:06:00,40.0,26.4,30.36,North,355,5.0,10.0,58,0.00,,,0.01,888,Wunderground v.1.15,2013-03-08 17:06:00,
2013-03-08 12:12:00,40.1,26.1,30.36,NNW,336,3.0,7.0,57,0.00,,,0.01,835,Wunderground v.1.15,2013-03-08 17:12:00,
2013-03-08 12:18:00,40.7,27.1,30.35,NNW,331,3.0,7.0,58,0.00,,,0.01,874,Wunderground v.1.15,2013-03-08 17:18:00,
2013-03-08 12:24:00,40.9,26.4,30.35,West,272,3.0,6.0,56,0.00,,,0.01,824,Wunderground v.1.15,2013-03-08 17:24:00,
2013-03-08 12:30:00,41.5,27.8,30.35,NNE,20,4.0,4.0,58,0.00,,,0.01,826,Wunderground v.1.15,2013-03-08 17:30:00,
2013-03-08 12:36:00,41.3,26.3,30.35,North,11,4.0,7.0,55,0.00,,,0.01,807,Wunderground v.1.15,2013-03-08 17:36:00,
2013-03-08 12:42:00,41.7,27.1,30.35,WNW,290,3.0,7.0,56,0.00,,,0.01,844,Wunderground v.1.15,2013-03-08 17:42:00,
2013-03-08 12:48:00,40.5,26.9,30.34,NNE,30,4.0,7.0,58,0.00,,,0.01,958,Wunderground v.1.15,2013-03-08 17:48:00,
2013-03-08 12:54:00,41.6,28.3,30.34,NNW,336,4.0,7.0,59,0.00,,,0.01,884,Wunderground v.1.15,2013-03-08 17:54:00,
2013-03-08 13:00:00,41.6,26.2,30.34,WNW,302,4.0,7.0,54,0.00,,,0.01,853,Wunderground v.1.15,2013-03-08 18:00:00,
2013-03-08 13:06:00,41.9,27.8,30.34,NNW,327,4.0,9.0,57,0.00,,,0.01,789,Wunderground v.1.15,2013-03-08 18:06:00,
2013-03-08 13:12:00,42.5,27.0,30.34,SE,145,3.0,7.0,54,0.00,,,0.01,780,Wunderground v.1.15,2013-03-08 18:12:00,
2013-03-08 13:18:00,42.1,25.7,30.34,NNW,348,3.0,7.0,52,0.00,,,0.01,775,Wunderground v.1.15,2013-03-08 18:18:00,
2013-03-08 13:24:00,41.9,26.0,30.34,NNW,327,4.0,7.0,53,0.00,,,0.01,786,Wunderground v.1.15,2013-03-08 18:24:00,
2013-03-08 13:30:00,42.5,27.0,30.34,WNW,297,3.0,3.0,54,0.00,,,0.01,763,Wunderground v.1.15,2013-03-08 18:30:00,
2013-03-08 13:36:00,42.6,26.2,30.34,NW,309,4.0,7.0,52,0.00,,,0.01,751,Wunderground v.1.15,2013-03-08 18:36:00,
2013-03-08 13:42:00,42.2,25.8,30.33,WSW,242,5.0,7.0,52,0.00,,,0.01,738,Wunderground v.1.15,2013-03-08 18:42:00,
2013-03-08 13:48:00,43.2,27.2,30.34,NNE,24,4.0,7.0,53,0.00,,,0.01,728,Wunderground v.1.15,2013-03-08 18:48:00,
2013-03-08 13:54:00,42.5,26.1,30.33,NNW,337,4.0,9.0,52,0.00,,,0.01,719,Wunderground v.1.15,2013-03-08 18:54:00,
2013-03-08 14:00:00,42.2,25.3,30.33,North,9,5.0,5.0,51,0.00,,,0.01,710,Wunderground v.1.15,2013-03-08 19:00:00,
2013-03-08 14:06:00,42.9,25.0,30.33,SE,138,4.0,7.0,49,0.00,,,0.01,700,Wunderground v.1.15,2013-03-08 19:06:00,
2013-03-08 14:12:00,43.7,26.7,30.33,North,350,3.0,7.0,51,0.00,,,0.01,689,Wunderground v.1.15,2013-03-08 19:12:00,
2013-03-08 14:18:00,43.2,24.8,30.33,ESE,119,4.0,8.0,48,0.00,,,0.01,680,Wunderground v.1.15,2013-03-08 19:18:00,
2013-03-08 14:24:00,43.0,25.1,30.33,NW,304,6.0,11.0,49,0.00,,,0.01,666,Wunderground v.1.15,2013-03-08 19:24:00,
2013-03-08 14:30:00,42.9,25.0,30.33,NNW,333,7.0,7.0,49,0.00,,,0.01,652,Wunderground v.1.15,2013-03-08 19:30:00,
2013-03-08 14:36:00,44.0,25.5,30.33,NNW,345,5.0,7.0,48,0.00,,,0.01,642,Wunderground v.1.15,2013-03-08 19:36:00,
2013-03-08 14:42:00,43.4,24.5,30.33,NW,323,5.0,12.0,47,0.00,,,0.01,628,Wunderground v.1.15,2013-03-08 19:42:00,
2013-03-08 14:48:00,43.7,25.3,30.33,NNW,335,6.0,12.0,48,0.00,,,0.01,615,Wunderground v.1.15,2013-03-08 19:48:00,
2013-03-08 14:54:00,44.7,26.2,30.34,West,274,4.0,7.0,48,0.00,,,0.01,596,Wunderground v.1.15,2013-03-08 19:54:00,
2013-03-08 15:00:00,44.7,25.2,30.34,NNE,24,3.0,7.0,46,0.00,,,0.01,584,Wunderground v.1.15,2013-03-08 20:00:00,
2013-03-08 15:06:00,44.2,25.7,30.33,NW,324,3.0,7.0,48,0.00,,,0.01,570,Wunderground v.1.15,2013-03-08 20:06:00,
2013-03-08 15:12:00,44.9,25.3,30.33,WNW,298,3.0,7.0,46,0.00,,,0.01,555,Wunderground v.1.15,2013-03-08 20:12:00,
2013-03-08 15:18:00,44.6,24.5,30.33,NNW,330,4.0,11.0,45,0.00,,,0.01,540,Wunderground v.1.15,2013-03-08 20:18:00,
2013-03-08 15:24:00,44.5,25.5,30.33,NNW,345,5.0,7.0,47,0.00,,,0.01,524,Wunderground v.1.15,2013-03-08 20:24:00,
2013-03-08 15:30:00,44.2,24.7,30.33,WNW,298,5.0,5.0,46,0.00,,,0.01,504,Wunderground v.1.15,2013-03-08 20:30:00,
2013-03-08 15:36:00,44.9,25.3,30.33,NW,309,4.0,7.0,46,0.00,,,0.01,489,Wunderground v.1.15,2013-03-08 20:36:00,
2013-03-08 15:42:00,44.6,25.6,30.33,WNW,296,4.0,7.0,47,0.00,,,0.01,469,Wunderground v.1.15,2013-03-08 20:42:00,
2013-03-08 15:48:00,44.7,26.2,30.33,WNW,284,4.0,8.0,48,0.00,,,0.01,448,Wunderground v.1.15,2013-03-08 20:48:00,
2013-03-08 15:54:00,44.7,25.7,30.34,NW,319,4.0,7.0,47,0.00,,,0.01,431,Wunderground v.1.15,2013-03-08 20:54:00,
2013-03-08 16:00:00,45.2,25.6,30.34,North,5,3.0,3.0,46,0.00,,,0.01,411,Wunderground v.1.15,2013-03-08 21:00:00,
2013-03-08 16:06:00,45.0,24.9,30.34,North,360,2.0,7.0,45,0.00,,,0.01,394,Wunderground v.1.15,2013-03-08 21:06:00,
2013-03-08 16:12:00,45.0,25.4,30.34,NNW,343,3.0,8.0,46,0.00,,,0.01,373,Wunderground v.1.15,2013-03-08 21:12:00,
2013-03-08 16:18:00,44.5,26.0,30.34,East,80,3.0,8.0,48,0.00,,,0.01,355,Wunderground v.1.15,2013-03-08 21:18:00,
2013-03-08 16:24:00,44.6,25.6,30.34,North,11,3.0,7.0,47,0.00,,,0.01,334,Wunderground v.1.15,2013-03-08 21:24:00,
2013-03-08 16:30:00,45.2,25.6,30.34,NNE,23,2.0,7.0,46,0.00,,,0.01,313,Wunderground v.1.15,2013-03-08 21:30:00,
2013-03-08 16:36:00,44.8,25.8,30.34,North,349,2.0,7.0,47,0.00,,,0.01,288,Wunderground v.1.15,2013-03-08 21:36:00,
2013-03-08 16:42:00,44.6,24.5,30.34,North,350,3.0,7.0,45,0.00,,,0.01,264,Wunderground v.1.15,2013-03-08 21:42:00,
2013-03-08 16:48:00,44.4,24.9,30.35,ENE,59,3.0,7.0,46,0.00,,,0.01,237,Wunderground v.1.15,2013-03-08 21:48:00,
2013-03-08 16:54:00,43.9,24.9,30.35,NE,48,3.0,7.0,47,0.00,,,0.01,209,Wunderground v.1.15,2013-03-08 21:54:00,
2013-03-08 17:00:00,44.3,25.3,30.35,North,355,2.0,7.0,47,0.00,,,0.01,178,Wunderground v.1.15,2013-03-08 22:00:00,
2013-03-08 17:06:00,44.1,25.1,30.35,NW,311,2.0,7.0,47,0.00,,,0.01,158,Wunderground v.1.15,2013-03-08 22:06:00,
2013-03-08 17:12:00,43.9,24.9,30.36,NW,324,2.0,7.0,47,0.00,,,0.01,135,Wunderground v.1.15,2013-03-08 22:12:00,
2013-03-08 17:18:00,43.6,24.7,30.36,WNW,295,3.0,8.0,47,0.00,,,0.01,111,Wunderground v.1.15,2013-03-08 22:18:00,
2013-03-08 17:24:00,43.3,24.9,30.36,North,349,3.0,7.0,48,0.00,,,0.01,90,Wunderground v.1.15,2013-03-08 22:24:00,
2013-03-08 17:30:00,43.2,24.8,30.37,NW,326,2.0,2.0,48,0.00,,,0.01,70,Wunderground v.1.15,2013-03-08 22:30:00,
2013-03-08 17:36:00,42.9,24.5,30.37,NW,316,2.0,7.0,48,0.00,,,0.01,32,Wunderground v.1.15,2013-03-08 22:36:00,
2013-03-08 17:42:00,42.4,24.1,30.37,NNE,13,2.0,7.0,48,0.00,,,0.01,21,Wunderground v.1.15,2013-03-08 22:42:00,
2013-03-08 17:48:00,41.8,24.0,30.37,NW,315,2.0,7.0,49,0.00,,,0.01,18,Wunderground v.1.15,2013-03-08 22:48:00,
2013-03-08 17:54:00,41.4,24.1,30.37,NW,325,2.0,7.0,50,0.00,,,0.01,14,Wunderground v.1.15,2013-03-08 22:54:00,
2013-03-08 18:00:00,41.0,24.2,30.37,WNW,301,2.0,2.0,51,0.00,,,0.01,12,Wunderground v.1.15,2013-03-08 23:00:00,
2013-03-08 18:06:00,40.5,23.8,30.38,WNW,294,1.0,7.0,51,0.00,,,0.01,9,Wunderground v.1.15,2013-03-08 23:06:00,
2013-03-08 18:12:00,40.1,24.3,30.38,WNW,294,0.0,7.0,53,0.00,,,0.01,5,Wunderground v.1.15,2013-03-08 23:12:00,
2013-03-08 18:18:00,39.4,24.6,30.38,WNW,294,0.0,7.0,55,0.00,,,0.01,0,Wunderground v.1.15,2013-03-08 23:18:00,
2013-03-08 18:24:00,38.6,24.7,30.38,WNW,294,0.0,7.0,57,0.00,,,0.01,0,Wunderground v.1.15,2013-03-08 23:24:00,
2013-03-08 18:30:00,37.8,24.3,30.39,North,351,0.0,7.0,58,0.00,,,0.01,0,Wunderground v.1.15,2013-03-08 23:30:00,
2013-03-08 18:36:00,37.2,24.2,30.39,NW,325,0.0,7.0,59,0.00,,,0.01,0,Wunderground v.1.15,2013-03-08 23:36:00,
2013-03-08 18:42:00,37.4,24.4,30.39,NW,310,1.0,7.0,59,0.00,,,0.01,0,Wunderground v.1.15,2013-03-08 23:42:00,
2013-03-08 18:48:00,37.1,24.5,30.40,NNW,332,0.0,7.0,60,0.00,,,0.01,0,Wunderground v.1.15,2013-03-08 23:48:00,
2013-03-08 18:54:00,36.6,24.0,30.40,NNW,332,0.0,7.0,60,0.00,,,0.01,0,Wunderground v.1.15,2013-03-08 23:54:00,
2013-03-08 19:00:00,36.3,24.5,30.40,NNW,332,0.0,7.0,62,0.00,,,0.01,0,Wunderground v.1.15,2013-03-09 00:00:00,
2013-03-08 19:06:00,35.8,24.8,30.40,NNW,332,0.0,7.0,64,0.00,,,0.01,0,Wunderground v.1.15,2013-03-09 00:06:00,
2013-03-08 19:12:00,35.4,24.0,30.40,NNW,332,0.0,7.0,63,0.00,,,0.01,0,Wunderground v.1.15,2013-03-09 00:12:00,
2013-03-08 19:18:00,35.1,24.1,30.41,NNW,332,0.0,7.0,64,0.00,,,0.01,0,Wunderground v.1.15,2013-03-09 00:18:00,
2013-03-08 19:24:00,34.7,24.5,30.41,NNW,342,0.0,7.0,66,0.00,,,0.01,0,Wunderground v.1.15,2013-03-09 00:24:00,
2013-03-08 19:30:00,34.0,24.5,30.41,NNE,21,0.0,7.0,68,0.00,,,0.01,0,Wunderground v.1.15,2013-03-09 00:30:00,
2013-03-08 19:36:00,33.7,24.3,30.41,NW,319,1.0,7.0,68,0.00,,,0.01,0,Wunderground v.1.15,2013-03-09 00:36:00,
2013-03-08 19:42:00,34.1,24.6,30.42,NW,320,1.0,7.0,68,0.00,,,0.01,0,Wunderground v.1.15,2013-03-09 00:42:00,
2013-03-08 19:48:00,34.4,24.2,30.42,NW,309,0.0,7.0,66,0.00,,,0.01,0,Wunderground v.1.15,2013-03-09 00:48:00,
2013-03-08 19:54:00,35.0,24.0,30.42,WNW,290,0.0,7.0,64,0.00,,,0.01,0,Wunderground v.1.15,2013-03-09 00:54:00,
2013-03-08 20:00:00,34.3,24.1,30.42,WNW,286,0.0,7.0,66,0.00,,,0.01,0,Wunderground v.1.15,2013-03-09 01:00:00,
2013-03-08 20:06:00,34.2,24.4,30.42,NW,313,0.0,7.0,67,0.00,,,0.01,0,Wunderground v.1.15,2013-03-09 01:06:00,
2013-03-08 20:12:00,33.8,24.0,30.42,NW,313,0.0,7.0,67,0.00,,,0.01,0,Wunderground v.1.15,2013-03-09 01:12:00,
2013-03-08 20:18:00,33.4,24.0,30.42,NW,313,0.0,7.0,68,0.00,,,0.01,0,Wunderground v.1.15,2013-03-09 01:18:00,
2013-03-08 20:24:00,33.0,24.3,30.42,NNW,345,0.0,7.0,70,0.00,,,0.01,0,Wunderground v.1.15,2013-03-09 01:24:00,
2013-03-08 20:30:00,33.0,24.3,30.42,NW,317,0.0,7.0,70,0.00,,,0.01,0,Wunderground v.1.15,2013-03-09 01:30:00,
2013-03-08 20:36:00,33.1,24.0,30.42,NW,317,0.0,7.0,69,0.00,,,0.01,0,Wunderground v.1.15,2013-03-09 01:36:00,
2013-03-08 20:42:00,33.4,24.3,30.42,NW,318,0.0,7.0,69,0.00,,,0.01,0,Wunderground v.1.15,2013-03-09 01:42:00,
2013-03-08 20:48:00,33.3,24.2,30.42,NW,318,0.0,7.0,69,0.00,,,0.01,0,Wunderground v.1.15,2013-03-09 01:48:00,
2013-03-08 20:54:00,32.9,24.2,30.42,NW,318,0.0,7.0,70,0.00,,,0.01,0,Wunderground v.1.15,2013-03-09 01:54:00,
2013-03-08 21:00:00,32.3,23.9,30.42,NW,306,0.0,7.0,71,0.00,,,0.01,0,Wunderground v.1.15,2013-03-09 02:00:00,
2013-03-08 21:06:00,32.0,24.0,30.42,NW,306,0.0,7.0,72,0.00,,,0.01,0,Wunderground v.1.15,2013-03-09 02:06:00,
2013-03-08 21:12:00,32.0,23.7,30.42,NW,306,0.0,7.0,71,0.00,,,0.01,0,Wunderground v.1.15,2013-03-09 02:12:00,
2013-03-08 21:18:00,31.7,23.7,30.42,NW,306,0.0,7.0,72,0.00,,,0.01,0,Wunderground v.1.15,2013-03-09 02:18:00,
2013-03-08 21:24:00,31.5,23.5,30.42,NW,306,0.0,7.0,72,0.00,,,0.01,0,Wunderground v.1.15,2013-03-09 02:24:00,
2013-03-08 21:30:00,31.2,23.9,30.42,NW,306,0.0,7.0,74,0.00,,,0.01,0,Wunderground v.1.15,2013-03-09 02:30:00,
2013-03-08 21:36:00,30.7,24.0,30.42,NW,306,0.0,7.0,76,0.00,,,0.01,0,Wunderground v.1.15,2013-03-09 02:36:00,
2013-03-08 21:42:00,30.3,23.6,30.42,NW,306,0.0,7.0,76,0.00,,,0.01,0,Wunderground v.1.15,2013-03-09 02:42:00,
2013-03-08 21:48:00,30.0,24.3,30.43,NW,306,0.0,7.0,79,0.00,,,0.01,0,Wunderground v.1.15,2013-03-09 02:48:00,
2013-03-08 21:54:00,29.7,24.0,30.43,NW,306,0.0,7.0,79,0.00,,,0.01,0,Wunderground v.1.15,2013-03-09 02:54:00,
2013-03-08 22:00:00,29.4,24.0,30.44,NW,306,0.0,7.0,80,0.00,,,0.01,0,Wunderground v.1.15,2013-03-09 03:00:00,
2013-03-08 22:06:00,29.0,23.6,30.44,NW,306,0.0,7.0,80,0.00,,,0.01,0,Wunderground v.1.15,2013-03-09 03:06:00,
2013-03-08 22:12:00,28.9,23.2,30.44,NW,306,0.0,7.0,79,0.00,,,0.01,0,Wunderground v.1.15,2013-03-09 03:12:00,
2013-03-08 22:18:00,28.8,23.7,30.43,NW,306,0.0,7.0,81,0.00,,,0.01,0,Wunderground v.1.15,2013-03-09 03:18:00,
2013-03-08 22:24:00,28.1,23.6,30.43,NW,306,0.0,7.0,83,0.00,,,0.01,0,Wunderground v.1.15,2013-03-09 03:24:00,
2013-03-08 22:30:00,27.8,23.0,30.43,NW,306,0.0,7.0,82,0.00,,,0.01,0,Wunderground v.1.15,2013-03-09 03:30:00,
2013-03-08 22:36:00,27.9,23.1,30.43,NW,306,0.0,7.0,82,0.00,,,0.01,0,Wunderground v.1.15,2013-03-09 03:36:00,
2013-03-08 22:42:00,27.4,22.9,30.43,NW,306,0.0,7.0,83,0.00,,,0.01,0,Wunderground v.1.15,2013-03-09 03:42:00,
2013-03-08 22:48:00,27.2,22.7,30.43,NW,306,0.0,7.0,83,0.00,,,0.01,0,Wunderground v.1.15,2013-03-09 03:48:00,
2013-03-08 22:54:00,27.3,23.1,30.43,NW,306,0.0,7.0,84,0.00,,,0.01,0,Wunderground v.1.15,2013-03-09 03:54:00,
2013-03-08 23:00:00,27.3,22.8,30.43,NW,306,0.0,7.0,83,0.00,,,0.01,0,Wunderground v.1.15,2013-03-09 04:00:00,
2013-03-08 23:06:00,27.1,22.9,30.42,NW,306,0.0,7.0,84,0.00,,,0.01,0,Wunderground v.1.15,2013-03-09 04:06:00,
2013-03-08 23:12:00,26.8,22.6,30.42,NW,306,0.0,7.0,84,0.00,,,0.01,0,Wunderground v.1.15,2013-03-09 04:12:00,
2013-03-08 23:18:00,26.6,22.7,30.42,NW,306,0.0,7.0,85,0.00,,,0.01,0,Wunderground v.1.15,2013-03-09 04:18:00,
2013-03-08 23:24:00,26.7,22.8,30.42,NW,306,0.0,7.0,85,0.00,,,0.01,0,Wunderground v.1.15,2013-03-09 04:24:00,
2013-03-08 23:30:00,26.7,23.1,30.42,NW,306,0.0,7.0,86,0.00,,,0.01,0,Wunderground v.1.15,2013-03-09 04:30:00,
2013-03-08 23:36:00,26.7,23.4,30.43,NW,306,0.0,7.0,87,0.00,,,0.01,0,Wunderground v.1.15,2013-03-09 04:36:00,
2013-03-08 23:42:00,26.5,23.2,30.43,NW,306,0.0,7.0,87,0.00,,,0.01,0,Wunderground v.1.15,2013-03-09 04:42:00,
2013-03-08 23:48:00,26.6,23.3,30.43,NW,306,0.0,7.0,87,0.00,,,0.01,0,Wunderground v.1.15,2013-03-09 04:48:00,
2013-03-08 23:54:00,26.1,22.8,30.43,NW,306,0.0,7.0,87,0.00,,,0.01,0,Wunderground v.1.15,2013-03-09 04:54:00,